Time;durP1;ratioP1;P1;durP2;ratioP2;P2;SDS_P1;SDS_P2;PMS_P1;PMS_P2;Temp;Humidity;BMP_temperature;BMP_pressure;BME280_temperature;BME280_humidity;BME280_pressure;Samples;Min_cycle;Max_cycle;Signal;HPM_P1;HPM_P2
2023/09/10 00:01:09;;;;;;;3.17;2.88;;;17.50;61.50;;;;;;5011761;28;20506;-54
2023/09/10 00:03:35;;;;;;;3.65;2.75;;;17.50;61.70;;;;;;5011554;28;20482;-55
2023/09/10 00:06:03;;;;;;;5.40;3.08;;;17.40;61.60;;;;;;5011689;28;20036;-54
2023/09/10 00:08:29;;;;;;;5.90;3.45;;;17.40;61.50;;;;;;5011693;28;20509;-55
2023/09/10 00:10:58;;;;;;;6.05;3.20;;;17.40;61.60;;;;;;5011674;28;20085;-54
2023/09/10 00:13:25;;;;;;;4.07;3.40;;;17.40;61.70;;;;;;5011687;28;20033;-55
2023/09/10 00:15:52;;;;;;;4.70;3.15;;;17.40;61.90;;;;;;5011563;28;20049;-54
2023/09/10 00:18:18;;;;;;;4.53;3.08;;;17.40;62.10;;;;;;5011850;28;20026;-56
2023/09/10 00:20:44;;;;;;;4.53;3.13;;;17.40;62.10;;;;;;5011598;28;20120;-55
2023/09/10 00:23:10;;;;;;;4.47;3.10;;;17.40;62.10;;;;;;5011596;28;20539;-55
2023/09/10 00:25:35;;;;;;;5.38;2.75;;;17.40;62.30;;;;;;5011778;28;20054;-55
2023/09/10 00:28:02;;;;;;;29.42;5.28;;;17.40;62.40;;;;;;5011588;28;20044;-55
2023/09/10 00:30:28;;;;;;;12.63;3.60;;;17.30;62.40;;;;;;5011754;28;20018;-55
2023/09/10 00:32:54;;;;;;;4.32;3.45;;;17.30;62.50;;;;;;5011354;28;20018;-54
2023/09/10 00:35:20;;;;;;;4.38;3.20;;;17.30;63.60;;;;;;5011603;28;20037;-55
2023/09/10 00:37:46;;;;;;;4.20;3.25;;;17.30;64.70;;;;;;5011264;28;20109;-55
2023/09/10 00:40:12;;;;;;;5.90;3.25;;;17.30;66.10;;;;;;5013139;28;20109;-55
2023/09/10 00:42:38;;;;;;;5.05;3.30;;;17.30;66.70;;;;;;5015099;28;20033;-54
2023/09/10 00:45:09;;;;;;;4.82;3.28;;;17.30;67.00;;;;;;5014903;28;20057;-54
2023/09/10 00:47:46;;;;;;;6.45;3.53;;;17.40;67.30;;;;;;5014763;28;20064;-55
2023/09/10 00:50:13;;;;;;;7.00;2.70;;;17.40;66.90;;;;;;5014687;28;20478;-55
2023/09/10 00:52:42;;;;;;;3.55;3.13;;;17.40;66.80;;;;;;5015106;28;20022;-55
2023/09/10 00:55:08;;;;;;;6.93;3.15;;;17.30;66.60;;;;;;5014578;28;20093;-55
2023/09/10 00:57:34;;;;;;;8.18;3.03;;;17.30;66.70;;;;;;5014504;28;20118;-55
2023/09/10 00:59:59;;;;;;;4.13;3.20;;;17.20;66.90;;;;;;5014618;28;20041;-55
2023/09/10 01:02:26;;;;;;;7.05;3.10;;;17.20;67.90;;;;;;5014582;28;20041;-53
2023/09/10 01:04:51;;;;;;;4.90;2.85;;;17.20;68.70;;;;;;5014476;28;20033;-55
2023/09/10 01:07:17;;;;;;;4.90;3.10;;;17.20;69.50;;;;;;5014562;28;20033;-55
2023/09/10 01:09:43;;;;;;;6.20;3.22;;;17.20;68.80;;;;;;4996902;28;20034;-55
2023/09/10 01:12:27;;;;;;;4.57;3.03;;;17.20;68.70;;;;;;5014439;28;20097;-55
2023/09/10 01:14:55;;;;;;;4.32;3.33;;;17.30;68.70;;;;;;4996762;28;20029;-55
2023/09/10 01:17:34;;;;;;;3.95;3.38;;;17.30;68.80;;;;;;5014464;28;20030;-55
2023/09/10 01:20:23;;;;;;;4.03;3.03;;;17.30;68.80;;;;;;5014568;28;20037;-55
2023/09/10 01:23:15;;;;;;;8.52;3.30;;;17.30;69.00;;;;;;5014296;28;20034;-54
2023/09/10 01:25:41;;;;;;;5.32;3.17;;;17.30;69.00;;;;;;5014399;28;20060;-55
2023/09/10 01:28:07;;;;;;;4.40;3.03;;;17.30;68.80;;;;;;5014226;28;20504;-55
2023/09/10 01:30:33;;;;;;;5.15;3.30;;;17.20;68.60;;;;;;5014359;28;20021;-53
2023/09/10 01:33:11;;;;;;;4.85;2.88;;;17.20;68.50;;;;;;5014005;28;20121;-54
2023/09/10 01:35:49;;;;;;;3.92;3.00;;;17.20;68.50;;;;;;5013933;28;20029;-54
2023/09/10 01:38:28;;;;;;;4.22;3.13;;;17.20;68.50;;;;;;5013841;28;20105;-53
2023/09/10 01:41:03;;;;;;;3.83;3.10;;;17.10;68.50;;;;;;5013816;28;20122;-55
2023/09/10 01:43:31;;;;;;;5.10;3.42;;;17.00;68.50;;;;;;5014006;28;20389;-54
2023/09/10 01:45:56;;;;;;;5.32;3.25;;;17.00;68.70;;;;;;5014075;28;20104;-54
2023/09/10 01:48:26;;;;;;;4.35;3.50;;;16.90;68.60;;;;;;5013667;28;20307;-55
2023/09/10 01:50:53;;;;;;;4.38;3.40;;;16.90;68.80;;;;;;5013396;28;20049;-55
2023/09/10 01:53:18;;;;;;;4.40;3.17;;;16.80;68.90;;;;;;5013351;28;20486;-55
2023/09/10 01:55:44;;;;;;;5.18;3.33;;;16.80;69.10;;;;;;5013816;28;20037;-55
2023/09/10 01:58:13;;;;;;;7.07;3.17;;;16.80;69.20;;;;;;5013779;28;20110;-54
2023/09/10 02:00:39;;;;;;;5.82;3.60;;;16.80;69.40;;;;;;5013631;28;20036;-55
2023/09/10 02:03:05;;;;;;;4.70;3.50;;;16.70;69.40;;;;;;5013487;28;20053;-54
2023/09/10 02:05:30;;;;;;;4.45;3.17;;;16.70;69.60;;;;;;5013596;28;20026;-55
2023/09/10 02:07:56;;;;;;;4.30;3.30;;;16.80;70.00;;;;;;5013255;28;20030;-55
2023/09/10 02:10:22;;;;;;;4.65;3.40;;;16.70;70.70;;;;;;5013981;28;20386;-54
2023/09/10 02:12:48;;;;;;;5.53;3.65;;;16.70;71.50;;;;;;5013076;28;20029;-54
2023/09/10 02:15:16;;;;;;;6.03;3.40;;;16.70;71.70;;;;;;5013190;28;20359;-54
2023/09/10 02:17:42;;;;;;;5.03;3.40;;;16.70;71.90;;;;;;5013043;28;20026;-54
2023/09/10 02:20:09;;;;;;;5.18;3.72;;;16.70;72.30;;;;;;5013028;28;20025;-55
2023/09/10 02:22:39;;;;;;;4.68;3.42;;;16.70;72.60;;;;;;5012997;28;20026;-54
2023/09/10 02:25:06;;;;;;;8.57;3.78;;;16.70;72.80;;;;;;5013045;28;20034;-55
2023/09/10 02:27:32;;;;;;;4.95;3.40;;;16.60;72.70;;;;;;5013147;28;20393;-55
2023/09/10 02:29:58;;;;;;;6.10;4.10;;;16.60;72.60;;;;;;5013024;28;20489;-54
2023/09/10 02:32:24;;;;;;;4.57;3.60;;;16.60;72.50;;;;;;5012837;28;20018;-54
2023/09/10 02:34:51;;;;;;;5.65;3.55;;;16.50;72.50;;;;;;5012870;28;20014;-55
2023/09/10 02:37:17;;;;;;;5.32;3.60;;;16.50;72.30;;;;;;5013104;28;20371;-55
2023/09/10 02:39:43;;;;;;;6.07;3.78;;;16.50;72.40;;;;;;5012792;28;20148;-55
2023/09/10 02:42:08;;;;;;;4.38;3.85;;;16.40;72.20;;;;;;5012648;28;20030;-55
2023/09/10 02:44:34;;;;;;;5.55;4.00;;;16.40;72.30;;;;;;5012591;28;20037;-53
2023/09/10 02:47:00;;;;;;;5.05;3.95;;;16.30;72.40;;;;;;5012530;28;20033;-55
2023/09/10 02:49:25;;;;;;;5.70;3.95;;;16.30;72.70;;;;;;5012704;28;20022;-55
2023/09/10 02:51:51;;;;;;;6.70;4.03;;;16.30;73.00;;;;;;5012581;28;20500;-55
2023/09/10 02:54:17;;;;;;;5.68;3.95;;;16.30;73.20;;;;;;5011973;28;20053;-54
2023/09/10 02:56:42;;;;;;;6.57;4.40;;;16.20;73.50;;;;;;5011743;28;20018;-54
2023/09/10 02:59:21;;;;;;;5.95;4.50;;;16.20;73.70;;;;;;5012225;28;20037;-55
2023/09/10 03:01:47;;;;;;;5.65;4.43;;;16.20;73.60;;;;;;5012431;28;20032;-55
2023/09/10 03:04:16;;;;;;;8.10;4.90;;;16.20;74.10;;;;;;5012439;28;20033;-55
2023/09/10 03:06:51;;;;;;;7.22;5.13;;;16.20;74.50;;;;;;5011999;28;20030;-54
2023/09/10 03:09:17;;;;;;;7.25;5.03;;;16.20;74.60;;;;;;5012339;28;20025;-55
2023/09/10 03:11:45;;;;;;;6.80;4.60;;;16.10;74.80;;;;;;5012531;28;20429;-55
2023/09/10 03:14:11;;;;;;;7.50;5.05;;;16.20;74.80;;;;;;5012213;28;20029;-55
2023/09/10 03:16:42;;;;;;;6.70;5.30;;;16.10;74.90;;;;;;5011019;28;20026;-54
2023/09/10 03:19:07;;;;;;;5.80;4.97;;;16.10;74.90;;;;;;5011273;28;20439;-53
2023/09/10 03:21:36;;;;;;;8.02;5.50;;;16.10;74.90;;;;;;5010903;28;20101;-54
2023/09/10 03:24:01;;;;;;;7.70;5.50;;;16.10;75.00;;;;;;5010782;28;20080;-54
2023/09/10 03:26:27;;;;;;;6.85;5.47;;;16.10;74.90;;;;;;5011062;28;20033;-53
2023/09/10 03:28:53;;;;;;;7.78;5.65;;;16.00;75.10;;;;;;5010769;28;20026;-55
2023/09/10 03:31:18;;;;;;;9.68;6.28;;;16.00;75.30;;;;;;5011711;28;20426;-55
2023/09/10 03:33:44;;;;;;;8.57;6.05;;;16.00;75.90;;;;;;5012058;28;20104;-55
2023/09/10 03:36:09;;;;;;;8.18;6.22;;;16.00;76.00;;;;;;5011999;28;20033;-55
2023/09/10 03:38:36;;;;;;;9.80;6.28;;;15.90;76.30;;;;;;5011912;28;20030;-56
2023/09/10 03:41:01;;;;;;;8.50;6.43;;;15.90;76.50;;;;;;5011965;28;20807;-55
2023/09/10 03:43:27;;;;;;;6.85;6.05;;;15.90;76.90;;;;;;5012155;28;20029;-56
2023/09/10 03:45:53;;;;;;;7.60;5.97;;;15.90;77.10;;;;;;5012233;28;20538;-54
2023/09/10 03:48:19;;;;;;;8.55;6.15;;;15.90;77.20;;;;;;5011804;28;20176;-56
2023/09/10 03:50:44;;;;;;;10.00;6.72;;;15.90;77.20;;;;;;5011914;28;20065;-55
2023/09/10 03:53:10;;;;;;;9.70;6.38;;;15.90;77.20;;;;;;5011952;28;20109;-55
2023/09/10 03:55:36;;;;;;;8.95;6.82;;;15.90;77.20;;;;;;5011622;28;20046;-54
2023/09/10 03:58:01;;;;;;;10.02;6.20;;;16.00;77.30;;;;;;5012112;28;20030;-55
2023/09/10 04:00:27;;;;;;;8.75;7.22;;;16.00;77.30;;;;;;5011848;28;20025;-55
2023/09/10 04:02:53;;;;;;;8.45;6.40;;;16.00;77.40;;;;;;5011755;28;20026;-56
2023/09/10 04:05:19;;;;;;;9.05;6.97;;;16.00;77.20;;;;;;5012025;28;20113;-54
2023/09/10 04:07:45;;;;;;;9.40;6.90;;;16.00;77.10;;;;;;5011820;28;20466;-56
2023/09/10 04:10:10;;;;;;;8.32;6.85;;;16.00;77.20;;;;;;5011605;28;20066;-56
2023/09/10 04:12:37;;;;;;;8.60;6.53;;;16.10;77.30;;;;;;5011424;28;20022;-55
2023/09/10 04:15:04;;;;;;;9.63;7.13;;;16.10;77.50;;;;;;5013191;28;20030;-55
2023/09/10 04:17:30;;;;;;;8.70;7.00;;;16.10;77.70;;;;;;5015628;28;20108;-53
2023/09/10 04:19:57;;;;;;;9.43;6.85;;;16.10;77.80;;;;;;5015421;28;20072;-56
2023/09/10 04:22:23;;;;;;;8.85;6.88;;;16.10;77.80;;;;;;5015408;28;20040;-56
2023/09/10 04:24:49;;;;;;;12.38;7.38;;;16.20;77.90;;;;;;5015310;28;20037;-54
2023/09/10 04:27:14;;;;;;;12.20;7.38;;;16.20;77.80;;;;;;5015115;28;20080;-55
2023/09/10 04:29:40;;;;;;;10.73;6.68;;;16.20;77.80;;;;;;5015243;28;20026;-55
2023/09/10 04:32:05;;;;;;;9.00;6.78;;;16.20;77.80;;;;;;5015144;28;20026;-56
2023/09/10 04:34:31;;;;;;;9.13;6.88;;;16.20;77.80;;;;;;5015048;28;20425;-56
2023/09/10 04:36:57;;;;;;;8.35;6.57;;;16.20;77.70;;;;;;5015217;28;20034;-55
2023/09/10 04:39:22;;;;;;;9.88;7.57;;;16.20;77.70;;;;;;5015149;28;20029;-56
2023/09/10 04:41:48;;;;;;;9.63;7.07;;;16.30;77.70;;;;;;5015149;28;20026;-55
2023/09/10 04:44:14;;;;;;;10.32;7.15;;;16.30;77.50;;;;;;5015047;28;20096;-56
2023/09/10 04:46:39;;;;;;;9.30;6.70;;;16.30;77.50;;;;;;5015081;28;20474;-55
2023/09/10 04:49:05;;;;;;;8.07;6.15;;;16.30;77.40;;;;;;5014767;28;20037;-54
2023/09/10 04:51:30;;;;;;;11.02;7.20;;;16.30;77.10;;;;;;4997014;28;20061;-55
2023/09/10 04:53:56;;;;;;;8.52;6.75;;;16.40;77.10;;;;;;5014611;28;20100;-56
2023/09/10 04:56:22;;;;;;;10.35;7.25;;;16.40;77.00;;;;;;5014615;28;20562;-56
2023/09/10 04:58:48;;;;;;;9.18;6.80;;;16.40;77.00;;;;;;5014868;28;20037;-53
2023/09/10 05:01:14;;;;;;;7.70;6.80;;;16.40;77.00;;;;;;5014700;28;20032;-54
2023/09/10 05:03:41;;;;;;;10.75;7.68;;;16.50;77.00;;;;;;5014675;28;20525;-56
2023/09/10 05:06:07;;;;;;;10.10;6.75;;;16.50;77.10;;;;;;5014632;28;20104;-56
2023/09/10 05:08:33;;;;;;;9.73;7.05;;;16.50;76.90;;;;;;5014704;28;20030;-55
2023/09/10 05:10:59;;;;;;;9.98;6.35;;;16.50;76.90;;;;;;5014662;28;20030;-55
2023/09/10 05:13:25;;;;;;;12.13;6.68;;;16.60;76.90;;;;;;5014406;28;20488;-55
2023/09/10 05:15:54;;;;;;;10.57;7.18;;;16.60;76.70;;;;;;5014520;28;20021;-54
2023/09/10 05:18:21;;;;;;;10.30;7.25;;;16.70;76.50;;;;;;5014429;28;20052;-56
2023/09/10 05:20:47;;;;;;;9.10;6.28;;;16.70;76.20;;;;;;5014503;28;20026;-56
2023/09/10 05:23:13;;;;;;;9.05;6.85;;;16.80;76.00;;;;;;5014302;28;20030;-56
2023/09/10 05:25:38;;;;;;;9.43;6.38;;;16.80;76.10;;;;;;5013437;28;20378;-56
2023/09/10 05:28:05;;;;;;;9.30;6.30;;;16.90;76.00;;;;;;5013651;28;20489;-56
2023/09/10 05:30:31;;;;;;;10.15;7.05;;;16.90;75.80;;;;;;5014014;28;20104;-54
2023/09/10 05:32:57;;;;;;;8.98;6.82;;;17.00;75.80;;;;;;5013821;28;20212;-56
2023/09/10 05:35:23;;;;;;;10.15;7.10;;;17.00;75.70;;;;;;5013879;28;20521;-55
2023/09/10 05:37:48;;;;;;;11.23;7.20;;;17.10;76.00;;;;;;5012837;28;20148;-56
2023/09/10 05:40:14;;;;;;;9.73;6.80;;;17.20;75.60;;;;;;5013850;28;20394;-56
2023/09/10 05:42:40;;;;;;;10.95;6.65;;;17.30;75.20;;;;;;5013792;28;20501;-56
2023/09/10 05:45:06;;;;;;;9.00;7.60;;;17.40;75.20;;;;;;5013930;28;20113;-55
2023/09/10 05:47:32;;;;;;;9.68;7.10;;;17.40;75.30;;;;;;5013345;28;20382;-54
2023/09/10 05:49:59;;;;;;;8.30;7.10;;;17.40;75.40;;;;;;5012990;28;20026;-55
2023/09/10 05:52:25;;;;;;;7.40;6.15;;;17.40;75.30;;;;;;5012188;28;20022;-56
2023/09/10 05:54:50;;;;;;;8.35;6.53;;;17.40;75.40;;;;;;5012057;28;20052;-55
2023/09/10 05:57:16;;;;;;;11.00;7.10;;;17.50;75.20;;;;;;5013058;28;20026;-56
2023/09/10 05:59:41;;;;;;;9.02;7.30;;;17.50;75.10;;;;;;5012895;28;20517;-56
2023/09/10 06:02:07;;;;;;;8.20;6.97;;;17.50;75.10;;;;;;5013169;28;20028;-54
2023/09/10 06:04:33;;;;;;;8.85;6.90;;;17.60;75.20;;;;;;5013109;28;20105;-55
2023/09/10 06:07:00;;;;;;;7.53;6.30;;;17.60;75.00;;;;;;5013263;28;20473;-55
2023/09/10 06:09:26;;;;;;;9.10;7.47;;;17.60;75.10;;;;;;5013192;28;20025;-56
2023/09/10 06:11:52;;;;;;;8.70;6.57;;;17.70;75.00;;;;;;5013286;28;20036;-54
2023/09/10 06:14:17;;;;;;;10.38;7.05;;;17.80;75.10;;;;;;5013094;28;20022;-56
2023/09/10 06:16:43;;;;;;;8.93;6.82;;;17.80;75.20;;;;;;5013172;28;20076;-55
2023/09/10 06:19:08;;;;;;;7.53;6.50;;;17.90;75.30;;;;;;5013107;28;20045;-56
2023/09/10 06:21:35;;;;;;;7.38;6.57;;;17.90;75.30;;;;;;5013048;28;20453;-56
2023/09/10 06:24:00;;;;;;;9.13;6.97;;;18.00;75.20;;;;;;5013079;28;20080;-56
2023/09/10 06:26:26;;;;;;;9.88;7.45;;;18.10;75.10;;;;;;5013305;28;20025;-55
2023/09/10 06:28:52;;;;;;;9.40;7.05;;;18.10;74.80;;;;;;5013022;28;20036;-56
2023/09/10 06:31:17;;;;;;;9.80;7.53;;;18.20;74.80;;;;;;5012822;28;20056;-54
2023/09/10 06:33:43;;;;;;;8.35;6.05;;;18.30;74.80;;;;;;5012789;28;20117;-55
2023/09/10 06:36:09;;;;;;;10.02;6.38;;;18.40;74.90;;;;;;5012808;28;20507;-56
2023/09/10 06:38:35;;;;;;;10.73;7.18;;;18.40;74.60;;;;;;5012348;28;20036;-55
2023/09/10 06:41:00;;;;;;;8.85;6.68;;;18.50;74.50;;;;;;5012895;28;20057;-56
2023/09/10 06:43:26;;;;;;;7.82;5.97;;;18.50;74.40;;;;;;5012853;28;20364;-56
2023/09/10 06:45:51;;;;;;;7.68;5.57;;;18.60;74.00;;;;;;5012593;28;20101;-56
2023/09/10 06:48:18;;;;;;;9.45;5.80;;;18.70;73.70;;;;;;5012524;28;20117;-55
2023/09/10 06:50:44;;;;;;;7.13;4.78;;;18.70;73.30;;;;;;5012787;28;20101;-55
2023/09/10 06:53:09;;;;;;;8.02;4.43;;;18.70;72.90;;;;;;5012574;28;20104;-55
2023/09/10 06:55:35;;;;;;;5.95;4.05;;;18.80;72.50;;;;;;5012402;28;20077;-56
2023/09/10 06:58:01;;;;;;;5.60;4.35;;;18.90;71.50;;;;;;5012298;28;20040;-55
2023/09/10 07:00:27;;;;;;;5.28;4.10;;;18.90;70.80;;;;;;5012459;28;20048;-56
2023/09/10 07:02:52;;;;;;;5.50;4.18;;;18.90;70.50;;;;;;5012612;28;20033;-55
2023/09/10 07:05:18;;;;;;;6.90;3.83;;;19.00;69.80;;;;;;5011547;28;20405;-56
2023/09/10 07:07:44;;;;;;;3.95;3.55;;;19.00;69.30;;;;;;5012716;28;20053;-55
2023/09/10 07:10:10;;;;;;;5.22;3.80;;;19.00;69.00;;;;;;5012346;28;20026;-55
2023/09/10 07:12:36;;;;;;;4.88;3.70;;;19.10;68.90;;;;;;5011783;28;20437;-55
2023/09/10 07:15:02;;;;;;;4.90;3.53;;;19.10;68.90;;;;;;5011607;28;20026;-54
2023/09/10 07:17:27;;;;;;;7.38;4.30;;;19.20;68.30;;;;;;5010358;28;20112;-53
2023/09/10 07:19:53;;;;;;;6.68;3.53;;;19.20;68.10;;;;;;5010511;28;20073;-55
2023/09/10 07:22:19;;;;;;;4.63;3.63;;;19.20;67.60;;;;;;5011472;28;20034;-56
2023/09/10 07:24:44;;;;;;;4.55;3.45;;;19.30;67.00;;;;;;5011656;28;20038;-56
2023/09/10 07:27:10;;;;;;;4.65;3.05;;;19.30;66.40;;;;;;5011595;28;20414;-54
2023/09/10 07:29:36;;;;;;;4.80;3.03;;;19.30;65.00;;;;;;5011670;28;20021;-56
2023/09/10 07:32:02;;;;;;;4.53;2.88;;;19.30;64.50;;;;;;5011997;28;20065;-56
2023/09/10 07:34:27;;;;;;;4.53;2.72;;;19.40;64.10;;;;;;5012128;28;20018;-56
2023/09/10 07:36:53;;;;;;;4.22;2.60;;;19.40;63.80;;;;;;5011634;28;20056;-53
2023/09/10 07:39:19;;;;;;;5.00;2.60;;;19.40;63.50;;;;;;5011140;28;20030;-56
2023/09/10 07:41:45;;;;;;;2.85;2.30;;;19.40;63.00;;;;;;5010904;28;20049;-55
2023/09/10 07:44:10;;;;;;;4.28;2.67;;;19.40;62.50;;;;;;5011423;28;20054;-56
2023/09/10 07:46:36;;;;;;;3.35;2.47;;;19.50;62.20;;;;;;4994008;28;20030;-54
2023/09/10 07:49:02;;;;;;;5.60;2.55;;;19.50;62.20;;;;;;5011548;28;20101;-56
2023/09/10 07:51:27;;;;;;;4.45;2.28;;;19.50;61.80;;;;;;5016085;28;20160;-56
2023/09/10 07:53:53;;;;;;;2.85;2.40;;;19.50;61.00;;;;;;5015829;28;20050;-56
2023/09/10 07:56:19;;;;;;;3.45;2.25;;;19.50;60.90;;;;;;5015810;28;20486;-56
2023/09/10 07:58:44;;;;;;;2.53;2.30;;;19.50;59.90;;;;;;5015841;28;20088;-56
2023/09/10 08:01:10;;;;;;;2.42;2.08;;;19.50;59.70;;;;;;5016309;28;20030;-55
2023/09/10 08:03:37;;;;;;;3.60;2.40;;;19.50;59.70;;;;;;4998170;28;20030;-54
2023/09/10 08:06:03;;;;;;;3.83;2.40;;;19.50;59.70;;;;;;5015909;28;20076;-55
2023/09/10 08:08:29;;;;;;;3.58;2.40;;;19.50;59.50;;;;;;5015698;28;20061;-56
2023/09/10 08:10:54;;;;;;;2.88;2.38;;;19.50;59.30;;;;;;5015828;28;20477;-56
2023/09/10 08:13:20;;;;;;;4.05;2.10;;;19.50;59.10;;;;;;5015719;28;20405;-56
2023/09/10 08:15:46;;;;;;;3.42;2.58;;;19.50;58.70;;;;;;5015623;28;20406;-56
2023/09/10 08:18:12;;;;;;;3.35;2.10;;;19.50;58.40;;;;;;5015334;28;20030;-54
2023/09/10 08:20:39;;;;;;;2.08;1.88;;;19.40;58.00;;;;;;5014692;28;20021;-55
2023/09/10 08:23:05;;;;;;;3.00;2.05;;;19.50;57.80;;;;;;5015355;28;20105;-56
2023/09/10 08:25:31;;;;;;;2.92;2.10;;;19.40;57.60;;;;;;5015296;28;20110;-56
2023/09/10 08:27:58;;;;;;;3.00;2.13;;;19.40;57.40;;;;;;5015288;28;20044;-56
2023/09/10 08:30:24;;;;;;;2.75;2.08;;;19.40;57.30;;;;;;5014454;28;20022;-56
2023/09/10 08:32:50;;;;;;;2.63;2.03;;;19.40;57.50;;;;;;5015041;28;20029;-53
2023/09/10 08:35:18;;;;;;;3.15;2.05;;;19.40;57.30;;;;;;5014518;28;20064;-54
2023/09/10 08:37:44;;;;;;;2.00;1.80;;;19.40;57.00;;;;;;5015756;28;20022;-56
2023/09/10 08:40:10;;;;;;;2.33;2.13;;;19.40;56.90;;;;;;5014769;28;20522;-54
2023/09/10 08:42:38;;;;;;;2.28;2.03;;;19.40;56.70;;;;;;5014874;28;20030;-56
2023/09/10 08:45:09;;;;;;;2.08;1.95;;;19.40;56.50;;;;;;5015155;28;20021;-56
2023/09/10 08:47:40;;;;;;;1.80;1.70;;;19.40;56.60;;;;;;5014880;28;20018;-56
2023/09/10 08:50:10;;;;;;;1.92;1.83;;;19.40;56.50;;;;;;5014281;28;20089;-56
2023/09/10 08:52:44;;;;;;;4.93;2.35;;;19.40;56.50;;;;;;5014337;28;20022;-55
2023/09/10 08:55:11;;;;;;;3.35;1.95;;;19.40;56.50;;;;;;5014307;28;20041;-56
2023/09/10 08:57:39;;;;;;;2.65;2.00;;;19.40;56.50;;;;;;5014871;28;20030;-56
2023/09/10 09:00:12;;;;;;;2.00;1.90;;;19.40;56.50;;;;;;5014633;28;20473;-56
2023/09/10 09:02:42;;;;;;;2.15;1.90;;;19.40;56.30;;;;;;5014845;28;20049;-56
2023/09/10 09:05:09;;;;;;;1.83;1.73;;;19.40;56.40;;;;;;5014438;28;20033;-55
2023/09/10 09:07:55;;;;;;;2.70;2.20;;;19.40;56.40;;;;;;5014271;28;20505;-54
2023/09/10 09:10:26;;;;;;;2.05;1.88;;;19.30;56.40;;;;;;5013156;28;20034;-57
2023/09/10 09:12:57;;;;;;;2.58;2.00;;;19.40;56.50;;;;;;5013126;28;20507;-56
2023/09/10 09:15:24;;;;;;;3.00;2.00;;;19.40;56.50;;;;;;5013574;28;20053;-56
2023/09/10 09:17:51;;;;;;;2.55;1.98;;;19.30;56.60;;;;;;5014037;28;20037;-56
2023/09/10 09:20:19;;;;;;;2.38;1.98;;;19.30;56.60;;;;;;5013898;28;20033;-56
2023/09/10 09:22:51;;;;;;;2.00;1.90;;;19.30;56.40;;;;;;4996302;28;20137;-55
2023/09/10 09:25:17;;;;;;;3.58;1.98;;;19.30;56.40;;;;;;5014014;28;20034;-55
2023/09/10 09:27:43;;;;;;;3.47;2.50;;;19.30;56.40;;;;;;5013169;28;20036;-55
2023/09/10 09:30:11;;;;;;;2.13;1.85;;;19.30;56.30;;;;;;5013228;28;20046;-55
2023/09/10 09:32:37;;;;;;;3.28;1.98;;;19.30;56.30;;;;;;5013157;28;20018;-55
2023/09/10 09:35:04;;;;;;;2.72;2.03;;;19.40;56.40;;;;;;5013608;28;20030;-56
2023/09/10 09:37:33;;;;;;;3.53;2.30;;;19.40;56.70;;;;;;5014399;28;20033;-56
2023/09/10 09:40:00;;;;;;;4.32;2.30;;;19.40;56.70;;;;;;5013793;28;20045;-54
2023/09/10 09:42:26;;;;;;;2.88;2.03;;;19.40;56.70;;;;;;5014203;28;20030;-55
2023/09/10 09:44:52;;;;;;;3.05;2.20;;;19.40;56.40;;;;;;5013679;28;20029;-55
2023/09/10 09:47:18;;;;;;;2.25;2.05;;;19.40;56.10;;;;;;5013772;28;20389;-55
2023/09/10 09:49:44;;;;;;;3.22;2.13;;;19.40;56.10;;;;;;5014080;28;20018;-56
2023/09/10 09:52:12;;;;;;;2.75;2.05;;;19.40;56.30;;;;;;5013582;28;20105;-56
2023/09/10 09:54:39;;;;;;;2.30;2.10;;;19.40;56.40;;;;;;5013433;28;20278;-56
2023/09/10 09:57:08;;;;;;;2.85;2.15;;;19.40;56.40;;;;;;5013959;28;20172;-56
2023/09/10 09:59:36;;;;;;;2.78;2.30;;;19.40;56.20;;;;;;5013740;28;20121;-57
2023/09/10 10:02:03;;;;;;;1.98;1.77;;;19.40;56.00;;;;;;5014134;28;20053;-55
2023/09/10 10:04:32;;;;;;;2.25;1.85;;;19.40;55.90;;;;;;5013739;28;20030;-56
2023/09/10 10:06:58;;;;;;;2.78;2.08;;;19.40;55.80;;;;;;5013749;28;20052;-56
2023/09/10 10:09:36;;;;;;;1.98;1.60;;;19.40;56.00;;;;;;5013877;28;20026;-55
2023/09/10 10:12:06;;;;;;;2.38;2.17;;;19.50;56.00;;;;;;5012664;28;20018;-55
2023/09/10 10:14:32;;;;;;;2.10;1.88;;;19.50;55.80;;;;;;5013348;28;20385;-55
2023/09/10 10:17:00;;;;;;;2.45;1.65;;;19.50;55.70;;;;;;5013419;28;20030;-56
2023/09/10 10:19:30;;;;;;;2.20;2.00;;;19.50;55.30;;;;;;5013627;28;20114;-56
2023/09/10 10:21:56;;;;;;;1.85;1.75;;;19.50;55.40;;;;;;5013310;28;20041;-56
2023/09/10 10:24:22;;;;;;;2.00;1.77;;;19.50;55.60;;;;;;5012655;28;20091;-55
2023/09/10 10:26:49;;;;;;;2.55;2.00;;;19.50;55.70;;;;;;5012740;28;20028;-55
2023/09/10 10:29:17;;;;;;;2.60;2.00;;;19.50;55.70;;;;;;5012537;28;20037;-54
2023/09/10 10:31:47;;;;;;;3.40;1.90;;;19.50;55.60;;;;;;5012422;28;20486;-55
2023/09/10 10:34:26;;;;;;;2.47;1.83;;;19.60;55.40;;;;;;5012541;28;20021;-56
2023/09/10 10:36:58;;;;;;;2.45;1.80;;;19.60;55.40;;;;;;5012191;28;20018;-52
2023/09/10 10:39:37;;;;;;;3.00;2.35;;;19.50;55.30;;;;;;5012571;28;20401;-55
2023/09/10 10:42:05;;;;;;;3.33;2.10;;;19.60;55.20;;;;;;5012593;28;20385;-55
2023/09/10 10:44:35;;;;;;;2.15;1.63;;;19.60;55.00;;;;;;5012158;28;20367;-56
2023/09/10 10:47:13;;;;;;;2.40;1.58;;;19.60;54.70;;;;;;5012542;28;20389;-54
2023/09/10 10:49:45;;;;;;;2.10;1.90;;;19.60;54.60;;;;;;5012200;28;20026;-56
2023/09/10 10:52:14;;;;;;;3.03;2.40;;;19.60;54.80;;;;;;5011888;28;20018;-57
2023/09/10 10:54:42;;;;;;;7.82;2.00;;;19.60;54.90;;;;;;5011901;28;20122;-54
2023/09/10 10:57:09;;;;;;;2.13;1.73;;;19.60;54.80;;;;;;5012012;28;20026;-56
2023/09/10 10:59:35;;;;;;;4.28;2.42;;;19.70;54.80;;;;;;5011429;28;20025;-56
2023/09/10 11:02:15;;;;;;;2.78;2.00;;;19.70;54.70;;;;;;5012348;28;20022;-55
2023/09/10 11:05:02;;;;;;;2.72;1.83;;;19.70;54.60;;;;;;5012689;28;20122;-56
2023/09/10 11:07:29;;;;;;;1.75;1.63;;;19.70;54.80;;;;;;5012601;28;20496;-57
2023/09/10 11:09:59;;;;;;;2.88;2.00;;;19.70;54.90;;;;;;5012478;28;20022;-55
2023/09/10 11:12:27;;;;;;;2.38;1.70;;;19.70;54.70;;;;;;5012248;28;20030;-57
2023/09/10 11:14:58;;;;;;;1.88;1.58;;;19.70;54.70;;;;;;5012508;28;20026;-57
2023/09/10 11:17:29;;;;;;;2.83;2.10;;;19.70;54.60;;;;;;5011808;28;20573;-56
2023/09/10 11:19:55;;;;;;;1.92;1.80;;;19.70;54.60;;;;;;4991153;28;20034;-55
2023/09/10 11:22:21;;;;;;;2.33;1.92;;;19.70;54.70;;;;;;4990209;28;20026;-56
2023/09/10 11:25:05;;;;;;;2.80;2.10;;;19.80;54.70;;;;;;4991253;28;20146;-57
2023/09/10 11:27:33;;;;;;;2.50;1.60;;;19.80;54.30;;;;;;4991822;28;20034;-55
2023/09/10 11:30:08;;;;;;;1.98;1.83;;;19.70;54.20;;;;;;4991948;28;20038;-56
2023/09/10 11:32:34;;;;;;;2.75;1.88;;;19.80;54.10;;;;;;4991801;28;20023;-56
2023/09/10 11:35:29;;;;;;;2.28;1.90;;;19.80;54.30;;;;;;4991405;28;20026;-53
2023/09/10 11:37:56;;;;;;;1.90;1.80;;;19.80;54.50;;;;;;4977019;28;20533;-56
2023/09/10 11:40:22;;;;;;;2.30;1.98;;;19.80;54.60;;;;;;4991013;28;20085;-57
2023/09/10 11:42:49;;;;;;;2.75;2.00;;;19.80;54.30;;;;;;4990413;28;20053;-55
2023/09/10 11:45:18;;;;;;;2.30;1.77;;;19.80;53.90;;;;;;4991007;28;20028;-57
2023/09/10 11:47:48;;;;;;;2.83;2.08;;;19.80;54.10;;;;;;4991069;28;20077;-56
2023/09/10 11:50:20;;;;;;;3.53;2.20;;;19.80;54.40;;;;;;4973988;28;20031;-56
2023/09/10 11:52:46;;;;;;;2.10;1.90;;;19.90;54.00;;;;;;4991482;28;20026;-57
2023/09/10 11:55:11;;;;;;;3.08;2.00;;;19.80;53.90;;;;;;5005156;28;20445;-55
2023/09/10 11:57:38;;;;;;;2.38;2.15;;;19.90;54.00;;;;;;5011372;28;20030;-57
2023/09/10 12:00:05;;;;;;;2.25;1.98;;;19.90;53.90;;;;;;5011403;28;20533;-56
2023/09/10 12:02:31;;;;;;;1.92;1.80;;;19.90;53.90;;;;;;5011308;28;20025;-58
2023/09/10 12:04:59;;;;;;;2.42;2.08;;;19.90;53.80;;;;;;5010879;28;20390;-56
2023/09/10 12:07:25;;;;;;;2.60;2.40;;;19.90;53.90;;;;;;5010912;28;20030;-56
2023/09/10 12:09:51;;;;;;;2.40;2.20;;;19.90;53.80;;;;;;5011703;28;20026;-57
2023/09/10 12:12:21;;;;;;;3.42;1.73;;;19.90;53.70;;;;;;5011584;28;20628;-57
2023/09/10 12:14:47;;;;;;;2.08;1.80;;;19.90;53.50;;;;;;5011451;28;20026;-57
2023/09/10 12:17:13;;;;;;;2.42;2.22;;;19.90;53.80;;;;;;5011546;28;20034;-57
2023/09/10 12:19:40;;;;;;;2.55;1.90;;;20.00;53.80;;;;;;5011702;28;20022;-55
2023/09/10 12:22:09;;;;;;;3.10;1.77;;;19.90;53.90;;;;;;5011217;28;20033;-56
2023/09/10 12:24:38;;;;;;;3.10;2.40;;;19.90;53.90;;;;;;5010815;28;20129;-56
2023/09/10 12:27:04;;;;;;;1.88;1.75;;;20.00;54.00;;;;;;5010392;28;20061;-55
2023/09/10 12:29:30;;;;;;;2.88;1.83;;;20.00;53.90;;;;;;5010745;28;20026;-57
2023/09/10 12:31:57;;;;;;;1.75;1.65;;;20.00;53.60;;;;;;5009800;28;20073;-57
2023/09/10 12:34:24;;;;;;;4.90;1.90;;;20.00;53.50;;;;;;5010589;28;20024;-56
2023/09/10 12:36:50;;;;;;;2.08;1.80;;;20.00;53.50;;;;;;5013086;28;20048;-56
2023/09/10 12:39:24;;;;;;;2.40;2.20;;;20.00;53.90;;;;;;5014425;28;20367;-55
2023/09/10 12:42:06;;;;;;;1.88;1.73;;;20.00;53.80;;;;;;5014124;28;20029;-56
2023/09/10 12:44:36;;;;;;;2.03;1.83;;;20.10;53.80;;;;;;5015287;28;20034;-54
2023/09/10 12:47:02;;;;;;;2.80;2.10;;;20.00;53.70;;;;;;5014143;28;20101;-56